Acequia, ID

10:29 PM MDT on October 25, 2014 (GMT -0600)
Joslin Field-Magic Valley Regional | Change Station
CLOSE
Current Station
Airport
Location: Twin Falls,
Elevation: 4150 ft
Nearby Weather Stations
Active Advisory: Wind Advisory, Special Statement Active Notice: Record Report

Elev 4150 ft 42.48 °N, 114.49 °W | Updated 36 minutes ago

Overcast
Overcast
60 °F
Feels Like 60 °F
N
8
Wind Variable Wind from West

Today
High -- | Low -- °F
--% Chance of Precip.
Yesterday
High -- | Low -- °F
Precip. -- in
8:00 AM 6:37 PM
Waxing Crescent, 6% visible
Pressure 29.75 in
Visibility 10.0 miles
Clouds Scattered Clouds 9500 ft
Mostly Cloudy 12000 ft
Dew Point 33 °F
Humidity 36%
Rainfall 0.00 in
Snow Depth Not available.
UV 0 out of 12
Pollen 3.20 out of 12
Air Quality Not available.
Flu Activity No Activity
METAR KTWF 260353Z AUTO 27007KT 10SM SCT095 BKN120 16/01 A2988 RMK AO2 SLP074 T01560006

More Conditions Fewer Conditions

Pressure 29.75 in
Visibility 10.0 miles
Clouds Scattered Clouds 9500 ft
Mostly Cloudy 12000 ft
Dew Point 33 °F
Humidity 36%
Rainfall 0.00 in
Snow Depth Not available.
UV 0 out of 12
Pollen 3.20 out of 12
Air Quality Not available.
Flu Activity No Activity
METAR KTWF 260353Z AUTO 27007KT 10SM SCT095 BKN120 16/01 A2988 RMK AO2 SLP074 T01560006

More Conditions Fewer Conditions

10-Day Weather Forecast

Almanac

Astronomy

Oct. 25, 2014 Rise Set
Actual Time 8:00 AM MDT 6:37 PM MDT
Civil Twilight 7:31 AM MDT 7:06 PM MDT
Nautical Twilight 6:58 AM MDT 7:39 PM MDT
Astronomical Twilight 6:25 AM MDT 8:11 PM MDT
Moon 9:44 AM MDT (10/25) 8:01 PM MDT (10/25)
Length of Visible Light 11h 34m
Length of Day
10h 37m
Tomorrow will be 2m 39s shorter.
Waxing Crescent, 6% of the Moon is Illuminated
Oct 26
Waxing Crescent
Oct 30
First Quarter
Nov 6
Full
Nov 14
Last Quarter
Nov 22
New

Yesterday's Extremes

State Highs State Lows

Community

WunderPhotos

Upload Photos

1,765,110 photos uploaded!

Nearby

Snow Depth

Station Depth Elevation
Magic Mountain 1 in 6880 ft
Wildhorse Divide 0 in 6490 ft
Swede Peak 0 in 7640 ft
Wilson Creek 0 in 7120 ft
Hyndman 0 in 7440 ft

Earthquake Activity

City Distance Mag. Time & Date
No recent earthquake activity has been reported nearby.
Minimum magnitude displayed is 2.5.

Coastal Water Temperatures

Place Temperature
No Stations Reporting

Nearby Weather Stations